Time;durP1;ratioP1;P1;durP2;ratioP2;P2;SDS_P1;SDS_P2;PMS_P1;PMS_P2;Temp;Humidity;BMP_temperature;BMP_pressure;BME280_temperature;BME280_humidity;BME280_pressure;Samples;Min_cycle;Max_cycle;Signal;HPM_P1;HPM_P2
2021/05/09 00:00:08;;;;;;;2.80;2.70;;;;;;;7.67;67.83;101402.91;6336054;28;20356;-73
2021/05/09 00:03:24;;;;;;;3.00;2.80;;;;;;;7.63;68.18;101410.56;6336164;28;20378;-71
2021/05/09 00:06:27;;;;;;;2.77;2.67;;;;;;;7.44;69.26;101414.66;6335848;28;20377;-72
2021/05/09 00:09:31;;;;;;;2.90;2.80;;;;;;;7.58;68.64;101408.41;6336742;28;20217;-73
2021/05/09 00:12:35;;;;;;;3.10;2.90;;;;;;;7.69;68.47;101412.56;6336957;28;20240;-73
2021/05/09 00:15:38;;;;;;;5.10;2.80;;;;;;;7.80;68.05;101409.41;6335668;28;20184;-72
2021/05/09 00:18:41;;;;;;;3.60;3.30;;;;;;;7.70;68.23;101418.84;6336712;28;20187;-71
2021/05/09 00:21:44;;;;;;;3.22;2.90;;;;;;;7.66;68.64;101406.63;6336652;28;20197;-72
2021/05/09 00:24:47;;;;;;;2.95;2.85;;;;;;;7.69;68.18;101409.00;6336553;28;20189;-72
2021/05/09 00:27:51;;;;;;;5.03;3.10;;;;;;;7.54;68.35;101408.97;6335880;28;20221;-71
2021/05/09 00:30:55;;;;;;;3.30;3.20;;;;;;;7.45;69.12;101410.91;6336798;28;20260;-71
2021/05/09 00:33:58;;;;;;;2.83;2.63;;;;;;;7.60;68.91;101404.69;6335973;28;20186;-71
2021/05/09 00:37:01;;;;;;;2.90;2.80;;;;;;;7.78;67.70;101405.19;6340660;28;20182;-71
2021/05/09 00:40:05;;;;;;;3.27;3.17;;;;;;;7.69;68.01;101400.84;6341601;28;20222;-71
2021/05/09 00:43:12;;;;;;;3.00;2.80;;;;;;;7.73;67.88;101415.75;6340078;28;20183;-72
2021/05/09 00:46:16;;;;;;;3.23;3.10;;;;;;;7.73;67.49;101402.19;6339347;28;20229;-71
2021/05/09 00:49:19;;;;;;;4.30;3.17;;;;;;;7.82;67.17;101425.50;6373135;27;20268;-71
2021/05/09 00:52:24;;;;;;;5.17;2.87;;;;;;;7.51;68.16;101426.47;6339454;28;20199;-72
2021/05/09 00:55:29;;;;;;;3.20;3.03;;;;;;;7.25;69.36;101420.56;6373572;27;20230;-72
2021/05/09 00:58:38;;;;;;;3.80;3.50;;;;;;;7.07;70.37;101421.88;6340659;28;20187;-71
2021/05/09 01:01:44;;;;;;;3.65;3.10;;;;;;;7.05;70.94;101413.94;6339831;28;20190;-72
2021/05/09 01:04:49;;;;;;;2.85;2.75;;;;;;;7.13;70.79;101422.03;6339546;28;20519;-72
2021/05/09 01:07:54;;;;;;;2.90;2.75;;;;;;;7.00;71.12;101413.63;6341051;28;20183;-72
2021/05/09 01:11:00;;;;;;;3.17;2.90;;;;;;;7.00;71.40;101410.94;6339610;28;20436;-73
2021/05/09 01:14:05;;;;;;;4.65;2.47;;;;;;;7.17;70.80;101414.34;6340568;28;20183;-72
2021/05/09 01:17:11;;;;;;;3.17;2.83;;;;;;;7.25;70.25;101415.16;6340266;28;20190;-72
2021/05/09 01:20:31;;;;;;;2.60;2.47;;;;;;;7.31;70.77;101433.44;6340304;28;20193;-72
2021/05/09 01:23:34;;;;;;;2.87;2.67;;;;;;;7.36;70.36;101414.72;6338137;28;20268;-72
2021/05/09 01:26:37;;;;;;;2.88;2.78;;;;;;;7.25;70.14;101420.56;6340186;28;20259;-71
2021/05/09 01:29:40;;;;;;;4.88;2.65;;;;;;;7.24;70.50;101424.28;6337996;28;20250;-71
2021/05/09 01:32:44;;;;;;;2.63;2.50;;;;;;;6.85;71.78;101407.28;6339962;28;20190;-71
2021/05/09 01:35:49;;;;;;;5.13;3.00;;;;;;;6.89;71.48;101420.31;6338942;28;20525;-72
2021/05/09 01:38:54;;;;;;;3.13;2.80;;;;;;;6.98;71.40;101415.69;6338710;28;20183;-72
2021/05/09 01:42:00;;;;;;;2.50;2.50;;;;;;;6.86;72.08;101417.09;6338831;28;20444;-72
2021/05/09 01:45:06;;;;;;;2.90;2.80;;;;;;;6.86;72.18;101408.97;6372248;27;20213;-72
2021/05/09 01:48:14;;;;;;;2.90;2.70;;;;;;;6.88;71.72;101405.06;6338280;28;20265;-73
2021/05/09 01:51:18;;;;;;;2.63;2.53;;;;;;;6.90;71.87;101405.75;6338252;28;20397;-72
2021/05/09 01:54:21;;;;;;;2.42;2.40;;;;;;;6.94;71.49;101407.06;6339510;28;20278;-71
2021/05/09 01:57:25;;;;;;;4.10;2.72;;;;;;;6.93;71.72;101409.97;6338083;28;20229;-72
2021/05/09 02:00:31;;;;;;;2.85;2.58;;;;;;;6.77;72.33;101410.06;6338187;28;20214;-71
2021/05/09 02:03:44;;;;;;;3.13;2.83;;;;;;;6.73;72.98;101403.28;6371993;27;20230;-71
2021/05/09 02:06:48;;;;;;;3.10;2.80;;;;;;;6.59;73.39;101401.34;6338313;28;20242;-72
2021/05/09 02:09:52;;;;;;;2.67;2.47;;;;;;;6.63;73.57;101408.09;6337532;28;20547;-72
2021/05/09 02:12:58;;;;;;;3.00;2.90;;;;;;;6.66;73.25;101402.31;6337077;28;20206;-72
2021/05/09 02:16:11;;;;;;;2.90;2.70;;;;;;;6.57;73.78;101403.38;6371554;27;20512;-72
2021/05/09 02:19:15;;;;;;;3.27;2.83;;;;;;;6.51;73.88;101395.97;6338825;28;20224;-72
2021/05/09 02:22:24;;;;;;;2.90;2.70;;;;;;;6.58;73.25;101410.47;6337892;28;20211;-72
2021/05/09 02:25:28;;;;;;;3.13;2.90;;;;;;;6.59;73.24;101401.34;6338799;28;20183;-72
2021/05/09 02:28:36;;;;;;;3.00;2.80;;;;;;;6.79;72.30;101397.16;6370841;27;20224;-72
2021/05/09 02:31:43;;;;;;;2.87;2.80;;;;;;;6.77;72.20;101404.63;6338115;28;20507;-71
2021/05/09 02:34:59;;;;;;;4.57;3.07;;;;;;;6.75;72.35;101390.41;6371487;27;20202;-72
2021/05/09 02:38:05;;;;;;;5.73;3.00;;;;;;;6.81;72.40;101395.09;6337260;28;20199;-72
2021/05/09 02:41:09;;;;;;;2.93;2.80;;;;;;;6.84;72.30;101394.75;6370248;27;20212;-71
2021/05/09 02:44:13;;;;;;;4.37;2.90;;;;;;;6.88;71.99;101396.09;6337265;28;20515;-72
2021/05/09 02:50:43;;;;;;;2.90;2.83;;;;;;;6.97;70.89;101389.56;6336021;28;20237;-73
2021/05/09 02:53:47;;;;;;;3.97;2.83;;;;;;;7.11;70.48;101396.94;6336851;28;20206;-72
2021/05/09 02:56:50;;;;;;;4.87;2.80;;;;;;;7.20;70.43;101395.84;6338629;28;20262;-72
2021/05/09 02:59:54;;;;;;;3.43;3.13;;;;;;;7.27;70.25;101382.38;6337026;28;20199;-74
2021/05/09 03:02:57;;;;;;;3.50;3.20;;;;;;;7.14;70.77;101391.13;6337033;28;20350;-72
2021/05/09 03:06:03;;;;;;;3.13;2.90;;;;;;;7.23;71.07;101379.22;6369959;27;20205;-72
2021/05/09 03:09:08;;;;;;;4.30;2.83;;;;;;;7.18;71.24;101387.06;6336595;28;20202;-72
2021/05/09 03:12:14;;;;;;;2.83;2.73;;;;;;;7.41;70.57;101382.44;6336297;28;20290;-73
2021/05/09 03:15:18;;;;;;;3.13;2.78;;;;;;;7.42;70.65;101386.81;6337902;28;20190;-72
2021/05/09 03:18:21;;;;;;;3.83;3.23;;;;;;;7.55;68.81;101388.91;6336807;28;20413;-72
2021/05/09 03:21:24;;;;;;;2.87;2.67;;;;;;;7.51;68.27;101393.88;6336864;28;20206;-73
2021/05/09 03:24:28;;;;;;;3.43;3.13;;;;;;;7.46;68.30;101390.88;6337981;28;20239;-72
2021/05/09 03:27:31;;;;;;;3.47;2.70;;;;;;;7.39;68.73;101395.38;6337297;28;20224;-71
2021/05/09 03:30:35;;;;;;;4.50;2.87;;;;;;;7.27;68.96;101396.78;6337873;28;20309;-71
2021/05/09 03:33:38;;;;;;;2.83;2.63;;;;;;;7.33;68.48;101374.38;6336354;28;20499;-72
2021/05/09 03:36:41;;;;;;;7.03;2.80;;;;;;;7.39;68.53;101383.66;6337773;28;20193;-72
2021/05/09 03:39:46;;;;;;;2.80;2.60;;;;;;;7.36;68.71;101379.44;6336501;28;20218;-72
2021/05/09 03:42:49;;;;;;;2.90;2.80;;;;;;;7.27;69.14;101380.50;6336860;28;20244;-73
2021/05/09 03:45:52;;;;;;;3.43;2.70;;;;;;;7.23;69.27;101373.78;6337346;28;20250;-71
2021/05/09 03:48:55;;;;;;;2.93;2.60;;;;;;;7.26;69.59;101373.41;6336756;28;20302;-72
2021/05/09 03:51:59;;;;;;;3.23;2.90;;;;;;;7.30;69.86;101366.59;6337045;28;20210;-71
2021/05/09 03:55:04;;;;;;;2.77;2.67;;;;;;;7.32;70.01;101369.09;6337198;28;20194;-72
2021/05/09 03:58:08;;;;;;;3.37;3.07;;;;;;;7.35;70.23;101383.16;6337243;28;20191;-72
2021/05/09 04:01:11;;;;;;;3.23;2.93;;;;;;;7.45;69.98;101386.47;6337388;28;20248;-72
2021/05/09 04:04:14;;;;;;;2.63;2.47;;;;;;;7.35;70.41;101380.44;6336974;28;20247;-71
2021/05/09 04:07:18;;;;;;;2.73;2.53;;;;;;;7.34;70.54;101381.50;6337105;28;20193;-72
2021/05/09 04:10:22;;;;;;;5.23;2.93;;;;;;;7.35;70.91;101388.59;6337153;28;20189;-71
2021/05/09 04:13:27;;;;;;;3.03;2.83;;;;;;;7.29;71.21;101389.31;6342388;28;20213;-72
2021/05/09 04:16:30;;;;;;;2.90;2.80;;;;;;;7.28;71.32;101390.34;6342404;28;20195;-71
2021/05/09 04:19:33;;;;;;;4.57;2.80;;;;;;;7.32;71.22;101388.94;6341752;28;20183;-71
2021/05/09 04:22:36;;;;;;;3.30;3.00;;;;;;;7.36;71.11;101379.44;6341808;28;20186;-72
2021/05/09 04:25:42;;;;;;;3.00;2.87;;;;;;;7.15;71.03;101349.41;6342010;28;20258;-72
2021/05/09 04:28:45;;;;;;;4.77;3.13;;;;;;;7.45;70.50;101375.59;6341843;28;20212;-72
2021/05/09 04:31:49;;;;;;;2.90;2.80;;;;;;;7.51;70.47;101383.03;6340509;28;20206;-71
2021/05/09 04:34:53;;;;;;;3.10;3.00;;;;;;;7.53;70.41;101380.13;6340454;28;20439;-71
2021/05/09 04:37:56;;;;;;;2.60;2.50;;;;;;;7.61;70.39;101379.19;6340417;28;20217;-72
2021/05/09 04:41:00;;;;;;;2.93;2.83;;;;;;;7.76;69.96;101390.91;6340272;28;20417;-72
2021/05/09 04:44:05;;;;;;;2.37;2.27;;;;;;;7.64;70.76;101386.97;6340674;28;20183;-72
2021/05/09 04:47:10;;;;;;;4.53;2.60;;;;;;;7.72;70.25;101382.31;6341583;28;20183;-71
2021/05/09 04:50:14;;;;;;;3.03;2.40;;;;;;;7.18;70.11;101286.63;6339744;28;20227;-71
2021/05/09 04:53:24;;;;;;;2.43;2.33;;;;;;;7.99;69.98;101391.69;6340074;28;20497;-72
2021/05/09 04:56:29;;;;;;;3.53;2.75;;;;;;;8.15;69.46;101391.50;6341074;28;20228;-71
2021/05/09 04:59:33;;;;;;;2.88;2.50;;;;;;;8.21;69.30;101396.22;6339943;28;20437;-71
2021/05/09 05:02:54;;;;;;;4.20;2.50;;;;;;;8.23;69.47;101388.69;6340941;28;20254;-71
2021/05/09 05:05:58;;;;;;;5.30;2.90;;;;;;;8.24;69.93;101395.84;6340591;28;20214;-71
2021/05/09 05:09:01;;;;;;;4.00;2.70;;;;;;;8.17;70.05;101384.84;6341012;28;20186;-72
2021/05/09 05:12:06;;;;;;;8.00;2.67;;;;;;;8.45;69.24;101387.75;6339497;28;20407;-71
2021/05/09 05:15:11;;;;;;;4.53;2.50;;;;;;;8.42;69.92;101377.28;6340441;28;20190;-71
2021/05/09 05:18:21;;;;;;;2.97;2.67;;;;;;;8.45;69.71;101376.88;6339642;28;20400;-72
2021/05/09 05:21:24;;;;;;;3.33;2.55;;;;;;;8.56;69.38;101390.00;6338894;28;20379;-71
2021/05/09 05:24:27;;;;;;;2.65;2.17;;;;;;;8.75;68.62;101389.41;6340774;28;20183;-72
2021/05/09 05:27:31;;;;;;;2.58;2.35;;;;;;;8.77;68.25;101387.34;6339999;28;20250;-71
2021/05/09 05:30:36;;;;;;;2.30;2.20;;;;;;;8.85;67.96;101380.09;6339124;28;20183;-72
2021/05/09 05:33:40;;;;;;;2.65;2.30;;;;;;;8.80;68.41;101392.41;6339099;28;20262;-72
2021/05/09 05:36:43;;;;;;;2.38;2.17;;;;;;;8.71;68.80;101404.41;6340503;28;20250;-72
2021/05/09 05:39:46;;;;;;;2.75;2.65;;;;;;;8.85;68.57;101388.25;6339999;28;20214;-71
2021/05/09 05:42:50;;;;;;;1.90;1.90;;;;;;;8.92;68.17;101397.31;6339993;28;20253;-71
2021/05/09 05:45:55;;;;;;;2.28;2.17;;;;;;;9.00;67.24;101392.59;6339986;28;20250;-72
2021/05/09 05:48:58;;;;;;;3.13;2.03;;;;;;;9.03;66.57;101381.34;6339173;28;20238;-72
2021/05/09 05:52:01;;;;;;;1.85;1.85;;;;;;;9.13;66.72;101391.91;6339642;28;20429;-72
2021/05/09 05:55:06;;;;;;;2.22;2.20;;;;;;;9.17;67.05;101394.03;6339575;28;20189;-72
2021/05/09 05:58:10;;;;;;;2.40;2.20;;;;;;;9.07;66.71;101388.06;6339977;28;20191;-72
2021/05/09 06:01:20;;;;;;;2.30;2.20;;;;;;;9.30;65.77;101376.97;6339447;28;20191;-72
2021/05/09 06:04:23;;;;;;;2.38;2.10;;;;;;;9.44;65.63;101378.78;6339652;28;20182;-72
2021/05/09 06:07:29;;;;;;;2.30;2.03;;;;;;;9.41;65.38;101387.34;6338324;28;20410;-71
2021/05/09 06:10:32;;;;;;;2.20;2.00;;;;;;;9.36;64.71;101393.38;6338243;28;20190;-72
2021/05/09 06:13:36;;;;;;;3.75;2.30;;;;;;;9.48;65.13;101379.22;6339203;28;20213;-71
2021/05/09 06:16:40;;;;;;;2.08;1.98;;;;;;;9.69;64.31;101390.94;6339338;28;20275;-72
2021/05/09 06:19:43;;;;;;;2.10;2.00;;;;;;;9.76;63.62;101382.78;6339274;28;20182;-71
2021/05/09 06:22:46;;;;;;;2.22;2.13;;;;;;;9.86;64.01;101389.59;6339033;28;20232;-71
2021/05/09 06:25:49;;;;;;;4.20;2.30;;;;;;;9.90;63.14;101395.50;6337912;28;20437;-73
2021/05/09 06:28:53;;;;;;;;;;;;;;;9.95;63.11;101387.56;6338624;28;20191;-73
2021/05/09 06:31:56;;;;;;;2.25;2.00;;;;;;;10.05;61.55;101383.44;6338111;28;19959;-73
2021/05/09 06:35:00;;;;;;;4.55;1.90;;;;;;;10.07;62.52;101381.34;6337143;28;20222;-73
2021/05/09 06:38:04;;;;;;;5.47;2.10;;;;;;;10.14;61.57;101386.03;6339104;28;20250;-73
2021/05/09 06:41:07;;;;;;;2.03;1.92;;;;;;;10.20;61.02;101374.31;6339013;28;20192;-73
2021/05/09 06:44:12;;;;;;;3.13;2.13;;;;;;;10.18;60.01;101370.94;6337589;28;20513;-73
2021/05/09 06:47:15;;;;;;;2.30;1.70;;;;;;;10.27;60.13;101358.84;6337613;28;20354;-71
2021/05/09 06:50:19;;;;;;;4.00;1.88;;;;;;;10.24;58.00;101370.16;6337667;28;20258;-72
2021/05/09 06:53:23;;;;;;;2.08;1.90;;;;;;;10.36;57.76;101373.97;6337185;28;20217;-72
2021/05/09 06:56:27;;;;;;;4.03;1.90;;;;;;;10.34;57.92;101346.06;6338548;28;20191;-72
2021/05/09 06:59:31;;;;;;;1.55;1.55;;;;;;;10.47;56.45;101365.22;6338648;28;20267;-72
2021/05/09 07:02:34;;;;;;;2.33;1.67;;;;;;;10.60;56.19;101359.81;6337177;28;20478;-73
2021/05/09 07:05:38;;;;;;;1.95;1.70;;;;;;;10.67;56.56;101366.13;6338018;28;20182;-73
2021/05/09 07:08:41;;;;;;;2.42;1.88;;;;;;;10.53;55.76;101378.03;6338033;28;20229;-73
2021/05/09 07:11:44;;;;;;;1.67;1.60;;;;;;;10.54;55.55;101377.00;6336901;28;20222;-72
2021/05/09 07:14:49;;;;;;;2.00;1.65;;;;;;;10.56;55.03;101364.00;6336846;28;20291;-73
2021/05/09 07:18:00;;;;;;;8.15;1.83;;;;;;;10.36;54.47;101319.44;6337809;28;20276;-73
2021/05/09 07:21:13;;;;;;;4.22;1.65;;;;;;;10.64;55.14;101358.34;6337816;28;20183;-72
2021/05/09 07:24:17;;;;;;;3.60;1.58;;;;;;;10.69;53.95;101359.44;6369670;27;20304;-72
2021/05/09 07:27:20;;;;;;;2.95;1.70;;;;;;;10.67;53.72;101355.22;6337155;28;20221;-72
2021/05/09 07:30:24;;;;;;;3.22;1.60;;;;;;;10.75;54.18;101360.50;6337652;28;20182;-73
2021/05/09 07:33:27;;;;;;;2.05;1.50;;;;;;;10.76;52.90;101364.91;6337662;28;20238;-72
2021/05/09 07:36:30;;;;;;;2.63;1.77;;;;;;;10.90;52.68;101349.41;6336789;28;20107;-72
2021/05/09 07:39:33;;;;;;;2.13;2.03;;;;;;;10.87;52.37;101356.13;6337375;28;20228;-72
2021/05/09 07:42:37;;;;;;;1.50;1.45;;;;;;;10.99;52.23;101346.25;6337549;28;20218;-73
2021/05/09 07:45:44;;;;;;;2.33;1.83;;;;;;;11.08;52.52;101345.03;6336775;28;20190;-72
2021/05/09 07:48:47;;;;;;;1.63;1.50;;;;;;;11.23;52.56;101345.69;6336788;28;20234;-72
2021/05/09 07:51:50;;;;;;;2.65;1.42;;;;;;;11.21;52.41;101358.72;6336598;28;20244;-72
2021/05/09 07:54:53;;;;;;;3.95;1.65;;;;;;;11.11;52.93;101358.28;6336286;28;20190;-72
2021/05/09 07:58:01;;;;;;;2.05;1.58;;;;;;;11.21;52.89;101358.72;6337112;28;20215;-72
2021/05/09 08:01:05;;;;;;;1.60;1.50;;;;;;;11.24;53.00;101368.38;6335708;28;20357;-72
2021/05/09 08:04:09;;;;;;;3.15;1.50;;;;;;;11.35;52.39;101358.72;6336867;28;20060;-72
2021/05/09 08:07:13;;;;;;;2.07;1.57;;;;;;;11.16;53.17;101363.94;6336545;28;20051;-72
2021/05/09 08:10:16;;;;;;;6.10;1.55;;;;;;;11.13;53.34;101355.31;6336496;28;20195;-72
2021/05/09 08:13:20;;;;;;;7.10;1.37;;;;;;;11.11;51.81;101346.50;6336664;28;20210;-72
2021/05/09 08:16:23;;;;;;;;;;;;;;;11.14;52.52;101346.09;6336745;28;20580;-72
2021/05/09 08:19:27;;;;;;;2.83;1.30;;;;;;;11.21;52.16;101347.78;6336348;28;20551;-73
2021/05/09 08:22:31;;;;;;;1.33;1.20;;;;;;;11.27;51.23;101357.84;6336486;28;20047;-72
2021/05/09 08:25:40;;;;;;;2.83;1.60;;;;;;;11.47;50.49;101352.41;6336343;28;20183;-72
2021/05/09 08:28:43;;;;;;;1.40;1.40;;;;;;;11.54;49.54;101361.44;6336745;28;20183;-72
2021/05/09 08:31:47;;;;;;;2.65;1.52;;;;;;;11.57;49.00;101351.97;6335219;28;20407;-72
2021/05/09 08:34:50;;;;;;;1.45;1.35;;;;;;;11.49;47.61;101349.47;6335352;28;20183;-72
2021/05/09 08:37:54;;;;;;;1.52;1.52;;;;;;;11.45;49.16;101342.75;6336211;28;20183;-72
2021/05/09 08:40:58;;;;;;;1.40;1.40;;;;;;;11.60;48.99;101346.94;6335771;28;20214;-72
2021/05/09 08:44:07;;;;;;;2.53;1.67;;;;;;;11.50;50.07;101335.59;6368329;28;20207;-73
2021/05/09 08:47:11;;;;;;;;;;;;;;;11.44;50.00;101339.16;6335379;28;20415;-72
2021/05/09 08:50:17;;;;;;;2.38;1.63;;;;;;;11.40;50.41;101345.28;6335548;28;20044;-72
2021/05/09 08:53:21;;;;;;;3.58;1.85;;;;;;;11.67;51.06;101346.94;6335276;28;20513;-73
2021/05/09 08:56:25;;;;;;;3.30;1.77;;;;;;;11.64;51.53;101334.53;6337527;28;20190;-75
2021/05/09 08:59:28;;;;;;;8.43;1.90;;;;;;;11.88;51.15;101338.53;6339828;28;20546;-75
2021/05/09 09:02:32;;;;;;;6.10;1.70;;;;;;;11.90;50.76;101330.94;6340940;28;20259;-74
2021/05/09 09:05:38;;;;;;;3.03;1.63;;;;;;;11.90;52.04;101326.31;6340146;28;20183;-75
2021/05/09 09:08:49;;;;;;;1.92;1.83;;;;;;;11.92;51.51;101334.28;6340605;28;20357;-73
2021/05/09 09:11:54;;;;;;;3.03;1.70;;;;;;;11.91;51.62;101332.63;6339615;28;20207;-73
2021/05/09 09:14:59;;;;;;;2.05;1.80;;;;;;;11.82;51.69;101329.28;6340273;28;20249;-73
2021/05/09 09:18:30;;;;;;;3.35;1.80;;;;;;;11.85;50.98;101328.00;6339943;28;20209;-72
2021/05/09 09:21:33;;;;;;;1.95;1.40;;;;;;;11.83;49.23;101330.13;6339708;28;20214;-73
2021/05/09 09:25:04;;;;;;;1.73;1.63;;;;;;;12.03;49.49;101330.91;6339007;28;20517;-73
2021/05/09 09:28:07;;;;;;;2.92;1.42;;;;;;;12.00;46.88;101325.88;6339627;28;20183;-73
2021/05/09 09:31:10;;;;;;;3.28;1.40;;;;;;;11.89;45.57;101318.31;6339023;28;20186;-72
2021/05/09 09:34:16;;;;;;;4.65;1.40;;;;;;;11.63;45.50;101312.88;6338653;28;20210;-72
2021/05/09 09:37:20;;;;;;;7.90;1.52;;;;;;;11.66;45.73;101328.84;6339841;28;20183;-72
2021/05/09 09:40:23;;;;;;;7.68;1.77;;;;;;;11.82;44.79;101325.69;6339481;28;20330;-75
2021/05/09 09:43:27;;;;;;;2.63;1.67;;;;;;;11.78;44.23;101338.13;6339956;28;20267;-74
2021/05/09 09:46:32;;;;;;;3.05;1.65;;;;;;;11.86;45.18;101340.63;6339548;28;20222;-73
2021/05/09 09:49:38;;;;;;;15.02;1.70;;;;;;;11.78;43.84;101338.13;6338868;28;20233;-74
2021/05/09 09:52:42;;;;;;;1.50;1.40;;;;;;;11.75;43.71;101346.75;6338616;28;20453;-73
2021/05/09 09:55:59;;;;;;;1.60;1.40;;;;;;;11.60;44.74;101340.63;6338691;28;20195;-74
2021/05/09 09:59:04;;;;;;;14.93;2.20;;;;;;;11.40;46.42;101334.34;6339339;28;20250;-74
2021/05/09 10:02:09;;;;;;;7.20;1.65;;;;;;;11.46;47.34;101344.41;6339362;28;20194;-74
2021/05/09 10:05:13;;;;;;;5.70;1.90;;;;;;;11.27;48.11;101327.81;6339472;28;20284;-72
2021/05/09 10:08:17;;;;;;;11.73;1.98;;;;;;;11.41;49.73;101330.53;6338267;28;20182;-73
2021/05/09 10:11:21;;;;;;;2.58;1.98;;;;;;;11.26;50.90;101334.34;6339575;28;20251;-73
2021/05/09 10:14:24;;;;;;;1.60;1.60;;;;;;;11.54;51.42;101330.53;6337580;28;20256;-73
2021/05/09 10:17:28;;;;;;;4.32;1.92;;;;;;;11.06;52.24;101319.84;6339045;28;20245;-73
2021/05/09 10:20:32;;;;;;;2.42;1.88;;;;;;;10.98;52.56;101330.94;6338036;28;20378;-73
2021/05/09 10:23:36;;;;;;;5.53;2.15;;;;;;;11.03;53.05;101339.34;6338927;28;20221;-73
2021/05/09 10:26:50;;;;;;;4.30;1.60;;;;;;;10.75;54.15;101325.03;6338858;28;20186;-73
2021/05/09 10:29:53;;;;;;;8.88;2.03;;;;;;;11.04;52.22;101340.19;6371144;27;20486;-74
2021/05/09 10:32:56;;;;;;;2.42;2.00;;;;;;;11.26;51.30;101334.34;6338378;28;20210;-73
2021/05/09 10:36:01;;;;;;;6.97;1.90;;;;;;;11.44;52.05;101335.59;6338801;28;20262;-72
2021/05/09 10:39:14;;;;;;;5.10;1.98;;;;;;;11.29;53.48;101327.63;6337918;28;20195;-73
2021/05/09 10:42:19;;;;;;;9.20;2.20;;;;;;;11.25;53.36;101321.72;6336947;28;20213;-72
2021/05/09 10:45:29;;;;;;;3.42;1.73;;;;;;;11.46;53.21;101333.47;6337237;28;20527;-72
2021/05/09 10:48:34;;;;;;;5.75;1.98;;;;;;;11.51;53.14;101330.94;6338117;28;20242;-72
2021/05/09 10:51:38;;;;;;;3.00;2.33;;;;;;;11.32;54.14;101321.72;6338125;28;20183;-73
2021/05/09 10:54:43;;;;;;;2.55;1.95;;;;;;;11.38;55.09;101325.50;6338112;28;20238;-72
2021/05/09 10:57:46;;;;;;;6.18;2.08;;;;;;;11.44;54.58;101324.66;6337018;28;20206;-71
2021/05/09 11:01:15;;;;;;;2.75;2.10;;;;;;;11.47;55.27;101322.34;6337491;28;20183;-72
2021/05/09 11:04:19;;;;;;;5.05;2.10;;;;;;;11.11;55.55;101314.59;6337889;28;20420;-72
2021/05/09 11:07:42;;;;;;;7.88;2.13;;;;;;;11.16;56.82;101312.06;6336817;28;20228;-72
2021/05/09 11:10:45;;;;;;;4.30;2.20;;;;;;;11.21;56.60;101304.06;6336531;28;20337;-72
2021/05/09 11:14:17;;;;;;;3.15;2.60;;;;;;;11.08;56.97;101298.59;6336250;28;20235;-72
2021/05/09 11:17:20;;;;;;;6.28;2.42;;;;;;;11.12;57.87;101288.09;6336544;28;20214;-72
2021/05/09 11:20:24;;;;;;;4.18;2.35;;;;;;;11.39;58.06;101294.41;6337325;28;20190;-72
2021/05/09 11:23:39;;;;;;;6.28;2.95;;;;;;;11.12;59.00;101288.94;6337967;28;20232;-72
2021/05/09 11:26:44;;;;;;;2.30;2.20;;;;;;;10.93;59.87;101240.63;6336518;28;20429;-72
2021/05/09 11:29:50;;;;;;;4.27;2.47;;;;;;;11.24;60.71;101295.47;6336115;28;20888;-71
2021/05/09 11:32:53;;;;;;;6.40;2.47;;;;;;;11.25;59.17;101294.41;6336927;28;20747;-71
2021/05/09 11:35:56;;;;;;;2.80;2.38;;;;;;;11.19;59.56;101289.81;6336320;28;20496;-72
2021/05/09 11:39:16;;;;;;;3.10;2.33;;;;;;;11.29;60.40;101290.22;6366711;27;20206;-72
2021/05/09 11:42:19;;;;;;;4.65;2.60;;;;;;;11.30;62.61;101296.50;6337358;28;20205;-72
2021/05/09 11:45:26;;;;;;;3.67;2.75;;;;;;;11.03;62.14;101292.09;6337022;28;20221;-72
2021/05/09 11:48:29;;;;;;;6.07;2.42;;;;;;;11.13;63.27;101295.25;6336720;28;20256;-72
2021/05/09 11:51:47;;;;;;;7.28;2.70;;;;;;;10.80;63.69;101299.81;6337355;28;20183;-72
2021/05/09 11:54:53;;;;;;;2.78;2.60;;;;;;;10.87;64.57;101279.69;6337026;28;20292;-73
2021/05/09 11:57:56;;;;;;;2.80;2.63;;;;;;;11.02;64.07;101291.25;6337035;28;20221;-73
2021/05/09 12:01:01;;;;;;;2.75;2.65;;;;;;;10.79;65.86;101293.53;6336661;28;20183;-71
2021/05/09 12:04:13;;;;;;;4.38;2.47;;;;;;;10.73;66.96;101288.91;6336943;28;20187;-71
2021/05/09 12:07:19;;;;;;;2.67;2.47;;;;;;;10.76;65.29;101274.00;6336951;28;20258;-71
2021/05/09 12:10:29;;;;;;;2.85;2.65;;;;;;;10.72;65.07;101281.75;6337496;28;20215;-72
2021/05/09 12:13:32;;;;;;;4.00;2.53;;;;;;;10.63;66.66;101283.00;6335919;28;20567;-72
2021/05/09 12:16:45;;;;;;;3.70;2.63;;;;;;;10.55;67.79;101275.03;6335815;28;20547;-71
2021/05/09 12:20:08;;;;;;;2.40;2.30;;;;;;;10.53;66.64;101266.16;6335535;28;20189;-71
2021/05/09 12:23:27;;;;;;;2.42;2.33;;;;;;;10.23;68.99;101232.09;6336932;28;20194;-71
2021/05/09 12:26:31;;;;;;;2.67;2.47;;;;;;;10.28;67.49;101256.88;6336673;28;20478;-72
2021/05/09 12:29:42;;;;;;;2.58;2.47;;;;;;;10.53;67.25;101255.25;6336118;28;20183;-71
2021/05/09 12:32:45;;;;;;;3.83;2.72;;;;;;;10.22;67.74;101255.81;6338906;28;20412;-71
2021/05/09 12:35:50;;;;;;;2.50;2.40;;;;;;;10.11;69.85;101244.63;6341624;28;20214;-72
2021/05/09 12:38:56;;;;;;;2.95;2.72;;;;;;;10.25;69.11;101246.38;6340926;28;20266;-71
2021/05/09 12:42:02;;;;;;;3.90;2.83;;;;;;;10.17;71.33;101235.69;6340276;28;20382;-72
2021/05/09 12:45:08;;;;;;;3.17;2.97;;;;;;;10.14;69.77;101249.72;6341315;28;20187;-72
2021/05/09 12:48:17;;;;;;;4.38;2.75;;;;;;;10.26;69.81;101231.69;6341250;28;20198;-72
2021/05/09 12:51:20;;;;;;;6.45;2.83;;;;;;;10.05;71.96;101236.22;6340284;28;20417;-72
2021/05/09 12:54:38;;;;;;;3.33;3.08;;;;;;;10.03;71.30;101232.88;6341333;28;20210;-72
2021/05/09 12:57:42;;;;;;;3.20;3.00;;;;;;;10.01;73.62;101234.94;6340133;28;20193;-72
2021/05/09 13:00:46;;;;;;;5.50;3.20;;;;;;;9.92;72.62;101206.19;6341317;28;20186;-72
2021/05/09 13:03:49;;;;;;;3.35;3.10;;;;;;;9.88;72.20;101210.38;6339812;28;20474;-71
2021/05/09 13:06:52;;;;;;;4.00;3.03;;;;;;;9.78;73.53;101190.84;6339362;28;20198;-71
2021/05/09 13:09:55;;;;;;;4.28;3.17;;;;;;;9.93;72.75;101199.69;6341011;28;20187;-71
2021/05/09 13:13:00;;;;;;;3.60;3.25;;;;;;;9.90;73.30;101200.09;6339438;28;20331;-72
2021/05/09 13:16:03;;;;;;;5.38;3.10;;;;;;;9.91;73.64;101185.41;6339559;28;20183;-72
2021/05/09 13:19:08;;;;;;;3.50;3.20;;;;;;;9.79;73.07;101187.03;6339076;28;20183;-72
2021/05/09 13:22:14;;;;;;;3.50;3.30;;;;;;;9.56;74.20;101196.56;6340237;28;20358;-72
2021/05/09 13:25:17;;;;;;;5.63;3.50;;;;;;;9.58;74.63;101194.50;6340372;28;20187;-72
2021/05/09 13:28:21;;;;;;;4.88;3.63;;;;;;;9.61;75.31;101178.59;6340599;28;20190;-72
2021/05/09 13:31:24;;;;;;;7.75;3.50;;;;;;;9.65;75.45;101179.03;6340023;28;20183;-71
2021/05/09 13:34:28;;;;;;;5.30;3.88;;;;;;;9.56;76.13;101164.72;6339950;28;20315;-71
2021/05/09 13:37:31;;;;;;;4.47;4.07;;;;;;;9.57;76.60;101160.97;6340582;28;20187;-71
2021/05/09 13:40:36;;;;;;;3.95;3.65;;;;;;;9.47;76.94;101155.06;6339739;28;20190;-71
2021/05/09 13:43:40;;;;;;;6.55;3.95;;;;;;;9.52;76.88;101147.13;6339312;28;20289;-72
2021/05/09 13:46:49;;;;;;;4.15;3.78;;;;;;;9.46;77.46;101126.13;6338171;28;20361;-71
2021/05/09 13:49:52;;;;;;;4.25;4.00;;;;;;;9.34;78.06;101133.19;6339097;28;20529;-72
2021/05/09 13:52:55;;;;;;;5.18;4.45;;;;;;;9.27;79.16;101137.78;6339729;28;20197;-72
2021/05/09 13:56:01;;;;;;;8.70;4.10;;;;;;;9.31;80.30;101139.06;6338672;28;20496;-72
2021/05/09 13:59:06;;;;;;;8.68;4.68;;;;;;;9.12;80.51;101128.88;6339232;28;20190;-71
2021/05/09 14:02:10;;;;;;;9.32;4.60;;;;;;;9.26;81.53;101125.19;6339770;28;20183;-71
2021/05/09 14:05:14;;;;;;;7.60;4.80;;;;;;;9.31;80.68;101107.22;6338654;28;20254;-72
2021/05/09 14:08:17;;;;;;;5.45;4.78;;;;;;;9.35;81.20;101096.75;6339546;28;20214;-72
2021/05/09 14:11:21;;;;;;;5.93;4.75;;;;;;;9.44;81.11;101085.50;6337906;28;20182;-72
2021/05/09 14:14:28;;;;;;;5.93;5.32;;;;;;;9.33;81.02;101093.38;6339221;28;20250;-72
2021/05/09 14:17:33;;;;;;;8.98;5.28;;;;;;;9.19;81.64;101076.16;6339427;28;20186;-72
2021/05/09 14:20:36;;;;;;;8.20;5.22;;;;;;;9.27;82.70;101061.56;6338484;28;20254;-72
2021/05/09 14:23:40;;;;;;;6.43;5.78;;;;;;;9.18;81.42;101074.47;6338816;28;20187;-71
2021/05/09 14:26:44;;;;;;;6.45;5.72;;;;;;;9.12;82.45;101069.00;6338629;28;20245;-71
2021/05/09 14:29:48;;;;;;;6.88;5.53;;;;;;;9.24;81.05;101075.56;6338655;28;20183;-72